createdAt,value
2019-04-25T00:00:43.154Z,10.31
2019-04-25T00:01:43.965Z,10.42
2019-04-25T00:02:43.703Z,10.31
2019-04-25T00:03:43.648Z,10.26
2019-04-25T00:04:43.418Z,10.22
2019-04-25T00:05:43.526Z,10.22
2019-04-25T00:06:42.906Z,10.11
2019-04-25T00:07:43.774Z,10.07
2019-04-25T00:08:43.851Z,10.13
2019-04-25T00:09:43.176Z,10.09
2019-04-25T00:10:43.072Z,10.09
2019-04-25T00:11:43.645Z,10.04
2019-04-25T00:12:43.672Z,10.14
2019-04-25T00:13:43.119Z,10.26
2019-04-25T00:14:42.569Z,10.13
2019-04-25T00:15:44.876Z,10.34
2019-04-25T00:16:43.096Z,10.38
2019-04-25T00:17:43.337Z,10.57
2019-04-25T00:18:43.032Z,10.55
2019-04-25T00:19:43.259Z,10.52
2019-04-25T00:20:43.549Z,10.62
2019-04-25T00:21:43.304Z,10.58
2019-04-25T00:22:42.925Z,10.52
2019-04-25T00:23:42.959Z,10.57
2019-04-25T00:24:43.289Z,10.62
2019-04-25T00:25:45.517Z,10.60
2019-04-25T00:26:44.009Z,10.62
2019-04-25T00:27:43.581Z,10.72
2019-04-25T00:28:44.353Z,10.83
2019-04-25T00:29:43.940Z,10.66
2019-04-25T00:30:43.484Z,10.62
2019-04-25T00:31:43.751Z,10.62
2019-04-25T00:32:43.950Z,10.66
2019-04-25T00:33:44.205Z,10.52
2019-04-25T00:34:44.245Z,10.54
2019-04-25T00:35:43.471Z,10.54
2019-04-25T00:36:43.529Z,10.38
2019-04-25T00:37:44.314Z,10.38
2019-04-25T00:38:46.215Z,10.29
2019-04-25T00:39:44.754Z,10.28
2019-04-25T00:40:43.520Z,10.35
2019-04-25T00:41:44.963Z,10.32
2019-04-25T00:42:43.597Z,10.36
2019-04-25T00:43:42.969Z,10.36
2019-04-25T00:44:44.539Z,10.36
2019-04-25T00:45:43.610Z,10.44
2019-04-25T00:46:46.358Z,10.35
2019-04-25T00:47:43.523Z,10.44
2019-04-25T00:48:43.123Z,10.43
2019-04-25T00:49:44.059Z,10.42
2019-04-25T00:50:43.299Z,10.28
2019-04-25T00:51:43.458Z,10.31
2019-04-25T00:52:43.522Z,10.17
2019-04-25T00:53:43.395Z,10.09
2019-04-25T00:54:43.067Z,10.13
2019-04-25T00:55:43.038Z,10.04
2019-04-25T00:56:45.655Z,10.14
2019-04-25T00:57:43.519Z,10.02
2019-04-25T00:58:43.133Z,10.14
2019-04-25T00:59:43.870Z,10.14
2019-04-25T01:00:43.302Z,10.17
2019-04-25T01:01:44.231Z,10.14
2019-04-25T01:02:42.391Z,10.18
2019-04-25T01:03:43.280Z,10.14
2019-04-25T01:04:42.035Z,10.14
2019-04-25T01:05:42.545Z,10.18
2019-04-25T01:06:41.859Z,10.18
2019-04-25T01:07:42.262Z,10.18
2019-04-25T01:08:41.838Z,10.20
2019-04-25T01:09:42.302Z,10.25
2019-04-25T01:10:41.815Z,10.26
2019-04-25T01:11:42.453Z,10.24
2019-04-25T01:12:41.803Z,10.35
2019-04-25T01:13:42.284Z,10.28
2019-04-25T01:14:42.097Z,10.26
2019-04-25T01:15:42.498Z,10.31
2019-04-25T01:16:41.834Z,10.25
2019-04-25T01:17:41.727Z,10.22
2019-04-25T01:18:43.552Z,10.38
2019-04-25T01:19:41.704Z,10.29
2019-04-25T01:20:43.340Z,10.29
2019-04-25T01:21:41.685Z,10.26
2019-04-25T01:22:41.669Z,10.31
2019-04-25T01:23:41.663Z,10.22
2019-04-25T01:24:41.647Z,10.06
2019-04-25T01:25:43.103Z,9.92
2019-04-25T01:26:41.626Z,9.78
2019-04-25T01:27:43.209Z,9.96
2019-04-25T01:28:41.603Z,9.85
2019-04-25T01:29:41.588Z,9.93
2019-04-25T01:30:41.581Z,9.80
2019-04-25T01:31:41.568Z,9.86
2019-04-25T01:32:41.558Z,9.85
2019-04-25T01:33:43.254Z,9.77
2019-04-25T01:34:41.543Z,9.88
2019-04-25T01:35:43.078Z,9.63
2019-04-25T01:36:41.508Z,9.71
2019-04-25T01:37:41.495Z,9.73
2019-04-25T01:38:43.186Z,9.77
2019-04-25T01:39:41.474Z,9.75
2019-04-25T01:40:41.463Z,9.85
2019-04-25T01:41:41.450Z,9.68
2019-04-25T01:42:41.440Z,9.78
2019-04-25T01:43:43.543Z,9.75
2019-04-25T01:44:41.415Z,9.74
2019-04-25T01:45:41.405Z,9.83
2019-04-25T01:46:41.596Z,9.86
2019-04-25T01:47:41.380Z,9.85
2019-04-25T01:48:41.370Z,9.80
2019-04-25T01:49:41.358Z,9.95
2019-04-25T01:50:41.346Z,9.91
2019-04-25T01:51:41.334Z,9.98
2019-04-25T01:52:41.322Z,10.10
2019-04-25T01:53:41.312Z,9.99
2019-04-25T01:54:41.298Z,9.98
2019-04-25T01:55:52.969Z,9.98
2019-04-25T01:56:41.278Z,9.96
2019-04-25T01:57:41.270Z,9.99
2019-04-25T01:58:41.276Z,9.89
2019-04-25T01:59:41.256Z,9.89
2019-04-25T02:00:41.231Z,9.92
2019-04-25T02:01:41.217Z,9.80
2019-04-25T02:02:41.208Z,9.86
2019-04-25T02:03:41.194Z,9.86
2019-04-25T02:04:41.185Z,9.89
2019-04-25T02:05:41.172Z,9.99
2019-04-25T02:06:41.161Z,10.01
2019-04-25T02:07:41.150Z,10.16
2019-04-25T02:08:41.137Z,10.18
2019-04-25T02:09:41.135Z,10.11
2019-04-25T02:10:41.112Z,10.13
2019-04-25T02:11:41.103Z,9.96
2019-04-25T02:12:41.090Z,9.88
2019-04-25T02:13:41.089Z,9.75
2019-04-25T02:14:41.067Z,9.81
2019-04-25T02:15:41.059Z,9.71
2019-04-25T02:16:41.048Z,9.77
2019-04-25T02:17:41.032Z,9.58
2019-04-25T02:18:41.021Z,9.65
2019-04-25T02:19:41.011Z,9.67
2019-04-25T02:20:40.999Z,9.70
2019-04-25T02:21:40.990Z,9.60
2019-04-25T02:22:40.975Z,9.55
2019-04-25T02:23:40.965Z,9.60
2019-04-25T02:24:40.954Z,9.67
2019-04-25T02:25:40.941Z,9.67
2019-04-25T02:26:40.931Z,9.71
2019-04-25T02:27:40.918Z,9.68
2019-04-25T02:28:40.908Z,9.59
2019-04-25T02:29:40.894Z,9.48
2019-04-25T02:30:40.887Z,9.35
2019-04-25T02:31:40.901Z,9.32
2019-04-25T02:32:40.864Z,9.45
2019-04-25T02:33:40.853Z,9.53
2019-04-25T02:34:40.837Z,9.63
2019-04-25T02:35:43.164Z,9.60
2019-04-25T02:36:40.814Z,9.67
2019-04-25T02:37:40.801Z,9.71
2019-04-25T02:38:40.790Z,9.59
2019-04-25T02:39:40.787Z,9.49
2019-04-25T02:40:40.772Z,9.49
2019-04-25T02:41:40.767Z,9.30
2019-04-25T02:42:40.745Z,9.32
2019-04-25T02:43:40.734Z,9.27
2019-04-25T02:44:40.728Z,9.24
2019-04-25T02:45:40.714Z,9.22
2019-04-25T02:46:40.715Z,9.26
2019-04-25T02:47:40.688Z,9.30
2019-04-25T02:48:40.675Z,9.08
2019-04-25T02:49:40.665Z,8.94
2019-04-25T02:50:40.657Z,8.89
2019-04-25T02:51:40.638Z,8.93
2019-04-25T02:52:40.631Z,8.91
2019-04-25T02:53:40.617Z,8.85
2019-04-25T02:54:40.606Z,8.85
2019-04-25T02:55:40.592Z,8.76
2019-04-25T02:56:40.607Z,8.71
2019-04-25T02:57:40.569Z,8.67
2019-04-25T02:58:40.570Z,8.88
2019-04-25T02:59:40.548Z,8.93
2019-04-25T03:00:54.985Z,8.96
2019-04-25T03:01:40.528Z,8.91
2019-04-25T03:02:40.511Z,9.00
2019-04-25T03:03:40.501Z,8.97
2019-04-25T03:04:40.490Z,8.96
2019-04-25T03:05:40.507Z,8.96
2019-04-25T03:06:40.503Z,8.97
2019-04-25T03:07:40.456Z,8.94
2019-04-25T03:08:40.458Z,8.89
2019-04-25T03:09:40.434Z,8.86
2019-04-25T03:10:40.418Z,8.78
2019-04-25T03:11:40.409Z,8.73
2019-04-25T03:12:40.394Z,8.89
2019-04-25T03:13:40.384Z,8.96
2019-04-25T03:14:40.376Z,8.91
2019-04-25T03:15:40.396Z,8.85
2019-04-25T03:16:40.349Z,8.86
2019-04-25T03:17:40.334Z,8.86
2019-04-25T03:18:40.330Z,8.88
2019-04-25T03:19:40.312Z,8.86
2019-04-25T03:20:40.307Z,8.88
2019-04-25T03:21:40.294Z,8.94
2019-04-25T03:22:40.279Z,8.86
2019-04-25T03:23:42.538Z,8.85
2019-04-25T03:24:40.253Z,8.88
2019-04-25T03:25:40.243Z,8.89
2019-04-25T03:26:40.791Z,8.93
2019-04-25T03:27:40.225Z,8.85
2019-04-25T03:28:40.208Z,8.89
2019-04-25T03:29:40.193Z,8.94
2019-04-25T03:30:40.183Z,8.86
2019-04-25T03:31:40.174Z,8.89
2019-04-25T03:32:40.158Z,8.79
2019-04-25T03:33:40.146Z,8.68
2019-04-25T03:34:40.142Z,8.71
2019-04-25T03:35:40.129Z,8.67
2019-04-25T03:36:40.125Z,8.57
2019-04-25T03:37:40.101Z,8.68
2019-04-25T03:38:40.088Z,8.57
2019-04-25T03:39:40.074Z,8.52
2019-04-25T03:40:40.073Z,8.61
2019-04-25T03:41:40.057Z,8.73
2019-04-25T03:42:40.037Z,8.88
2019-04-25T03:43:40.029Z,8.86
2019-04-25T03:44:40.018Z,8.97
2019-04-25T03:45:40.004Z,8.96
2019-04-25T03:46:39.993Z,8.88
2019-04-25T03:47:39.981Z,8.86
2019-04-25T03:48:39.972Z,8.79
2019-04-25T03:49:39.958Z,8.80
2019-04-25T03:50:39.942Z,8.71
2019-04-25T03:51:39.932Z,8.67
2019-04-25T03:52:39.920Z,8.68
2019-04-25T03:53:39.905Z,8.61
2019-04-25T03:54:39.897Z,8.67
2019-04-25T03:55:39.886Z,8.78
2019-04-25T03:56:49.876Z,8.78
2019-04-25T03:57:39.859Z,8.75
2019-04-25T03:58:39.847Z,8.75
2019-04-25T03:59:39.838Z,8.71
2019-04-25T04:00:39.825Z,8.64
2019-04-25T04:01:39.811Z,8.52
2019-04-25T04:02:39.799Z,8.47
2019-04-25T04:03:39.786Z,8.52
2019-04-25T04:04:39.775Z,8.55
2019-04-25T04:05:39.765Z,8.50
2019-04-25T04:06:39.754Z,8.43
2019-04-25T04:07:39.740Z,8.40
2019-04-25T04:08:39.728Z,8.37
2019-04-25T04:09:39.714Z,8.42
2019-04-25T04:10:39.706Z,8.40
2019-04-25T04:11:39.694Z,8.40
2019-04-25T04:12:39.680Z,8.39
2019-04-25T04:13:39.667Z,8.39
2019-04-25T04:14:39.656Z,8.45
2019-04-25T04:15:39.643Z,8.73
2019-04-25T04:16:39.631Z,8.75
2019-04-25T04:17:39.623Z,8.85
2019-04-25T04:18:39.606Z,9.01
2019-04-25T04:19:39.594Z,9.01
2019-04-25T04:20:39.584Z,9.10
2019-04-25T04:21:39.570Z,9.20
2019-04-25T04:22:39.559Z,9.13
2019-04-25T04:23:39.549Z,9.20
2019-04-25T04:24:39.538Z,9.19
2019-04-25T04:25:39.521Z,9.04
2019-04-25T04:26:39.511Z,9.17
2019-04-25T04:27:39.499Z,9.30
2019-04-25T04:28:39.486Z,9.23
2019-04-25T04:29:39.474Z,9.04
2019-04-25T04:30:39.463Z,8.94
2019-04-25T04:31:39.452Z,8.88
2019-04-25T04:32:39.440Z,8.71
2019-04-25T04:33:39.428Z,8.60
2019-04-25T04:34:39.412Z,8.60
2019-04-25T04:35:39.402Z,8.60
2019-04-25T04:36:39.391Z,8.57
2019-04-25T04:37:39.379Z,8.61
2019-04-25T04:38:39.462Z,8.65
2019-04-25T04:39:39.353Z,8.63
2019-04-25T04:40:39.340Z,8.61
2019-04-25T04:41:39.330Z,8.70
2019-04-25T04:42:39.315Z,8.83
2019-04-25T04:43:39.307Z,8.85
2019-04-25T04:44:39.294Z,8.83
2019-04-25T04:45:39.279Z,8.86
2019-04-25T04:46:39.268Z,8.67
2019-04-25T04:47:39.253Z,8.50
2019-04-25T04:48:39.241Z,8.52
2019-04-25T04:49:39.229Z,8.40
2019-04-25T04:50:39.219Z,8.34
2019-04-25T04:51:39.207Z,8.45
2019-04-25T04:52:39.192Z,8.97
2019-04-25T04:53:39.182Z,9.42
2019-04-25T04:54:39.168Z,9.93
2019-04-25T04:55:39.156Z,10.60
2019-04-25T04:56:39.143Z,11.05
2019-04-25T04:57:39.129Z,11.35
2019-04-25T04:58:39.119Z,11.48
2019-04-25T04:59:39.107Z,11.72
2019-04-25T05:00:39.095Z,11.84
2019-04-25T05:01:39.085Z,12.05
2019-04-25T05:02:39.079Z,12.04
2019-04-25T05:03:39.062Z,12.08
2019-04-25T05:04:39.093Z,12.33
2019-04-25T05:05:39.041Z,12.41
2019-04-25T05:06:39.033Z,12.56
2019-04-25T05:07:39.021Z,12.62
2019-04-25T05:08:39.006Z,12.58
2019-04-25T05:09:39.000Z,12.59
2019-04-25T05:10:38.985Z,12.37
2019-04-25T05:11:38.973Z,12.34
2019-04-25T05:12:38.965Z,12.07
2019-04-25T05:13:38.952Z,12.00
2019-04-25T05:14:38.941Z,11.90
2019-04-25T05:15:38.932Z,11.88
2019-04-25T05:16:38.922Z,11.94
2019-04-25T05:17:38.910Z,11.85
2019-04-25T05:18:40.092Z,11.81
2019-04-25T05:19:38.887Z,11.81
2019-04-25T05:20:38.879Z,11.81
2019-04-25T05:21:38.867Z,11.82
2019-04-25T05:22:38.856Z,11.85
2019-04-25T05:23:38.848Z,11.82
2019-04-25T05:24:38.836Z,11.85
2019-04-25T05:25:38.823Z,11.75
2019-04-25T05:26:38.813Z,11.63
2019-04-25T05:27:56.878Z,11.78
2019-04-25T05:28:38.792Z,11.72
2019-04-25T05:29:38.779Z,11.64
2019-04-25T05:30:38.771Z,11.70
2019-04-25T05:31:38.765Z,11.69
2019-04-25T05:32:38.776Z,11.85
2019-04-25T05:33:38.740Z,11.88
2019-04-25T05:34:38.726Z,11.96
2019-04-25T05:35:38.719Z,11.97
2019-04-25T05:36:38.712Z,12.04
2019-04-25T05:37:38.696Z,12.15
2019-04-25T05:38:38.688Z,12.38
2019-04-25T05:39:38.681Z,12.37
2019-04-25T05:40:38.665Z,12.49
2019-04-25T05:41:38.673Z,12.46
2019-04-25T05:42:38.647Z,12.59
2019-04-25T05:43:38.636Z,12.46
2019-04-25T05:44:38.626Z,12.55
2019-04-25T05:45:38.616Z,12.62
2019-04-25T05:46:38.607Z,12.67
2019-04-25T05:47:38.594Z,12.70
2019-04-25T05:48:38.585Z,12.80
2019-04-25T05:49:38.575Z,12.81
2019-04-25T05:50:38.568Z,12.88
2019-04-25T05:51:38.555Z,13.01
2019-04-25T05:52:38.547Z,13.13
2019-04-25T05:53:38.539Z,13.14
2019-04-25T05:54:38.529Z,13.14
2019-04-25T05:55:38.518Z,13.22
2019-04-25T05:56:38.509Z,13.21
2019-04-25T05:57:47.410Z,13.28
2019-04-25T05:58:38.489Z,13.39
2019-04-25T05:59:38.488Z,13.41
2019-04-25T06:00:38.470Z,13.61
2019-04-25T06:01:38.462Z,13.69
2019-04-25T06:02:38.452Z,13.66
2019-04-25T06:03:38.442Z,13.59
2019-04-25T06:04:38.435Z,13.68
2019-04-25T06:05:38.424Z,13.66
2019-04-25T06:06:38.415Z,13.73
2019-04-25T06:07:38.406Z,13.76
2019-04-25T06:08:38.398Z,13.75
2019-04-25T06:09:38.387Z,13.83
2019-04-25T06:10:38.382Z,13.91
2019-04-25T06:11:38.371Z,13.94
2019-04-25T06:12:38.364Z,13.98
2019-04-25T06:13:38.352Z,13.94
2019-04-25T06:14:38.344Z,14.02
2019-04-25T06:15:38.335Z,13.94
2019-04-25T06:16:38.337Z,13.93
2019-04-25T06:17:38.315Z,13.63
2019-04-25T06:18:38.309Z,13.73
2019-04-25T06:19:38.302Z,13.79
2019-04-25T06:20:38.292Z,13.91
2019-04-25T06:21:38.280Z,14.13
2019-04-25T06:22:38.274Z,14.20
2019-04-25T06:23:38.264Z,14.29
2019-04-25T06:24:38.255Z,14.44
2019-04-25T06:25:39.883Z,14.54
2019-04-25T06:26:39.945Z,14.63
2019-04-25T06:27:38.230Z,14.63
2019-04-25T06:28:49.142Z,14.79
2019-04-25T06:29:38.212Z,14.71
2019-04-25T06:30:38.206Z,14.67
2019-04-25T06:31:38.194Z,14.79
2019-04-25T06:32:38.185Z,14.80
2019-04-25T06:33:38.189Z,14.72
2019-04-25T06:34:38.169Z,14.72
2019-04-25T06:35:38.162Z,14.79
2019-04-25T06:36:38.152Z,14.79
2019-04-25T06:37:38.144Z,14.69
2019-04-25T06:38:38.132Z,14.86
2019-04-25T06:39:38.147Z,14.83
2019-04-25T06:40:38.119Z,14.82
2019-04-25T06:41:38.110Z,14.80
2019-04-25T06:42:38.101Z,14.80
2019-04-25T06:43:38.092Z,14.75
2019-04-25T06:44:38.087Z,14.80
2019-04-25T06:45:38.076Z,14.83
2019-04-25T06:46:38.065Z,14.87
2019-04-25T06:47:38.057Z,14.86
2019-04-25T06:48:38.053Z,14.86
2019-04-25T06:49:38.041Z,14.95
2019-04-25T06:50:38.040Z,14.98
2019-04-25T06:51:38.025Z,15.05
2019-04-25T06:52:38.019Z,15.15
2019-04-25T06:53:38.010Z,15.16
2019-04-25T06:54:38.000Z,15.16
2019-04-25T06:55:37.991Z,15.15
2019-04-25T06:56:37.984Z,15.19
2019-04-25T06:57:37.985Z,15.18
2019-04-25T06:58:37.970Z,15.27
2019-04-25T06:59:41.271Z,15.23
2019-04-25T07:00:42.653Z,15.28
2019-04-25T07:01:37.942Z,15.38
2019-04-25T07:02:37.936Z,15.43
2019-04-25T07:03:37.929Z,15.37
2019-04-25T07:04:37.921Z,15.46
2019-04-25T07:05:40.546Z,15.44
2019-04-25T07:06:37.906Z,15.48
2019-04-25T07:07:37.908Z,15.44
2019-04-25T07:08:37.889Z,15.55
2019-04-25T07:09:37.913Z,15.59
2019-04-25T07:10:37.871Z,15.56
2019-04-25T07:11:37.866Z,15.60
2019-04-25T07:12:37.856Z,15.73
2019-04-25T07:13:38.872Z,15.88
2019-04-25T07:14:37.841Z,15.91
2019-04-25T07:15:37.833Z,15.96
2019-04-25T07:16:37.828Z,16.07
2019-04-25T07:17:37.819Z,16.16
2019-04-25T07:18:37.811Z,16.26
2019-04-25T07:19:37.804Z,16.25
2019-04-25T07:20:37.799Z,16.32
2019-04-25T07:21:37.787Z,16.37
2019-04-25T07:22:37.826Z,16.40
2019-04-25T07:23:38.278Z,16.45
2019-04-25T07:24:37.768Z,16.50
2019-04-25T07:25:37.758Z,16.51
2019-04-25T07:26:39.691Z,16.63
2019-04-25T07:27:37.743Z,16.81
2019-04-25T07:28:37.737Z,16.70
2019-04-25T07:29:37.731Z,16.78
2019-04-25T07:30:48.534Z,16.80
2019-04-25T07:31:37.713Z,16.96
2019-04-25T07:32:37.710Z,16.95
2019-04-25T07:33:37.703Z,17.03
2019-04-25T07:34:37.693Z,17.03
2019-04-25T07:35:37.686Z,17.10
2019-04-25T07:36:37.684Z,17.14
2019-04-25T07:37:41.492Z,17.10
2019-04-25T07:38:37.667Z,17.22
2019-04-25T07:39:37.660Z,17.09
2019-04-25T07:40:37.654Z,17.07
2019-04-25T07:41:38.503Z,17.28
2019-04-25T07:42:37.638Z,17.20
2019-04-25T07:43:37.632Z,17.24
2019-04-25T07:44:49.442Z,17.27
2019-04-25T07:45:38.291Z,17.32
2019-04-25T07:46:39.967Z,17.46
2019-04-25T07:47:37.738Z,17.51
2019-04-25T07:48:38.159Z,17.66
2019-04-25T07:49:37.937Z,17.76
2019-04-25T07:50:37.590Z,17.76
2019-04-25T07:51:37.579Z,17.87
2019-04-25T07:52:37.757Z,17.95
2019-04-25T07:53:37.628Z,17.98
2019-04-25T07:54:38.469Z,17.96
2019-04-25T07:55:38.796Z,18.04
2019-04-25T07:56:37.878Z,18.09
2019-04-25T07:57:37.539Z,18.07
2019-04-25T07:58:48.062Z,18.09
2019-04-25T07:59:37.525Z,18.01
2019-04-25T08:00:37.647Z,18.11
2019-04-25T08:01:38.775Z,18.04
2019-04-25T08:02:37.577Z,18.11
2019-04-25T08:03:37.501Z,18.13
2019-04-25T08:04:38.345Z,18.25
2019-04-25T08:05:37.911Z,18.28
2019-04-25T08:06:37.702Z,18.34
2019-04-25T08:07:37.865Z,18.38
2019-04-25T08:08:38.136Z,18.39
2019-04-25T08:09:37.997Z,18.54
2019-04-25T08:10:38.122Z,18.50
2019-04-25T08:11:38.265Z,18.53
2019-04-25T08:12:37.448Z,18.56
2019-04-25T08:13:37.439Z,18.71
2019-04-25T08:14:37.432Z,18.75
2019-04-25T08:15:38.333Z,18.87
2019-04-25T08:16:37.424Z,18.87
2019-04-25T08:17:38.859Z,18.94
2019-04-25T08:18:37.413Z,19.05
2019-04-25T08:19:37.403Z,19.09
2019-04-25T08:20:37.399Z,19.01
2019-04-25T08:21:38.355Z,19.02
2019-04-25T08:22:50.087Z,19.12
2019-04-25T08:23:38.830Z,19.15
2019-04-25T08:24:37.377Z,19.16
2019-04-25T08:25:39.258Z,19.31
2019-04-25T08:26:37.613Z,19.31
2019-04-25T08:27:37.358Z,19.40
2019-04-25T08:28:49.938Z,19.39
2019-04-25T08:29:39.506Z,19.46
2019-04-25T08:30:38.171Z,19.52
2019-04-25T08:31:37.717Z,19.60
2019-04-25T08:32:37.617Z,19.61
2019-04-25T08:33:37.323Z,19.78
2019-04-25T08:34:37.419Z,19.80
2019-04-25T08:35:38.174Z,19.76
2019-04-25T08:36:38.613Z,19.92
2019-04-25T08:37:37.900Z,19.87
2019-04-25T08:38:38.127Z,19.90
2019-04-25T08:39:38.424Z,19.92
2019-04-25T08:40:38.858Z,19.94
2019-04-25T08:41:37.281Z,20.04
2019-04-25T08:42:37.954Z,20.08
2019-04-25T08:43:39.156Z,20.16
2019-04-25T08:44:37.268Z,20.19
2019-04-25T08:45:38.364Z,20.25
2019-04-25T08:46:38.103Z,20.26
2019-04-25T08:47:37.390Z,20.31
2019-04-25T08:48:37.245Z,20.38
2019-04-25T08:49:38.174Z,20.48
2019-04-25T08:50:39.738Z,20.50
2019-04-25T08:51:37.866Z,20.53
2019-04-25T08:52:37.771Z,20.53
2019-04-25T08:53:37.220Z,20.51
2019-04-25T08:54:41.089Z,20.60
2019-04-25T08:55:38.221Z,20.63
2019-04-25T08:56:37.836Z,20.64
2019-04-25T08:57:37.936Z,20.71
2019-04-25T08:58:37.196Z,20.76
2019-04-25T08:59:43.302Z,20.87
2019-04-25T09:00:38.252Z,20.90
2019-04-25T09:01:39.412Z,20.88
2019-04-25T09:02:38.572Z,20.87
2019-04-25T09:03:37.981Z,20.93
2019-04-25T09:04:38.001Z,20.98
2019-04-25T09:05:37.792Z,20.97
2019-04-25T09:06:37.575Z,20.94
2019-04-25T09:07:38.215Z,20.96
2019-04-25T09:08:38.214Z,21.06
2019-04-25T09:09:37.866Z,21.13
2019-04-25T09:10:38.624Z,21.15
2019-04-25T09:11:38.885Z,21.15
2019-04-25T09:12:37.790Z,21.19
2019-04-25T09:13:38.304Z,21.15
2019-04-25T09:14:37.830Z,21.11
2019-04-25T09:15:38.088Z,21.16
2019-04-25T09:16:37.885Z,21.13
2019-04-25T09:17:37.982Z,20.97
2019-04-25T09:18:38.131Z,21.09
2019-04-25T09:19:38.360Z,21.15
2019-04-25T09:20:40.286Z,20.98
2019-04-25T09:21:37.837Z,21.01
2019-04-25T09:22:37.792Z,21.03
2019-04-25T09:23:37.902Z,21.03
2019-04-25T09:24:38.089Z,21.13
2019-04-25T09:25:37.073Z,21.22
2019-04-25T09:26:38.265Z,21.28
2019-04-25T09:27:39.695Z,21.22
2019-04-25T09:28:39.179Z,21.30
2019-04-25T09:29:37.063Z,21.37
2019-04-25T09:30:37.422Z,21.37
2019-04-25T09:31:37.575Z,21.38
2019-04-25T09:32:37.280Z,21.43
2019-04-25T09:33:37.177Z,21.19
2019-04-25T09:34:38.069Z,21.34
2019-04-25T09:35:37.653Z,21.36
2019-04-25T09:36:37.703Z,21.43
2019-04-25T09:37:37.023Z,21.53
2019-04-25T09:38:37.022Z,21.55
2019-04-25T09:39:37.026Z,21.77
2019-04-25T09:40:37.464Z,21.64
2019-04-25T09:41:37.845Z,21.43
2019-04-25T09:42:37.062Z,21.46
2019-04-25T09:43:37.314Z,21.42
2019-04-25T09:44:38.186Z,21.38
2019-04-25T09:45:37.586Z,21.48
2019-04-25T09:46:37.333Z,21.55
2019-04-25T09:47:37.178Z,21.64
2019-04-25T09:48:37.536Z,21.79
2019-04-25T09:49:37.932Z,21.90
2019-04-25T09:50:38.239Z,21.91
2019-04-25T09:51:37.618Z,21.94
2019-04-25T09:52:37.739Z,21.98
2019-04-25T09:53:42.397Z,22.05
2019-04-25T09:54:38.080Z,22.11
2019-04-25T09:55:37.534Z,22.29
2019-04-25T09:56:36.944Z,22.17
2019-04-25T09:57:36.943Z,22.05
2019-04-25T09:58:37.942Z,21.99
2019-04-25T09:59:37.535Z,21.94
2019-04-25T10:00:38.137Z,22.04
2019-04-25T10:01:37.888Z,22.06
2019-04-25T10:02:36.988Z,22.20
2019-04-25T10:03:36.919Z,22.35
2019-04-25T10:04:37.800Z,22.38
2019-04-25T10:05:37.123Z,22.44
2019-04-25T10:06:37.323Z,22.48
2019-04-25T10:07:37.312Z,22.57
2019-04-25T10:08:37.044Z,22.56
2019-04-25T10:09:36.896Z,22.66
2019-04-25T10:10:37.828Z,22.78
2019-04-25T10:11:38.227Z,22.89
2019-04-25T10:12:37.369Z,22.91
2019-04-25T10:13:37.586Z,23.01
2019-04-25T10:14:37.690Z,23.03
2019-04-25T10:15:37.556Z,23.03
2019-04-25T10:16:36.871Z,23.14
2019-04-25T10:17:37.719Z,23.09
2019-04-25T10:18:37.796Z,23.18
2019-04-25T10:19:37.738Z,23.23
2019-04-25T10:20:37.644Z,23.34
2019-04-25T10:21:37.929Z,23.35
2019-04-25T10:22:36.849Z,23.37
2019-04-25T10:23:38.168Z,23.53
2019-04-25T10:24:37.358Z,23.50
2019-04-25T10:25:37.972Z,23.60
2019-04-25T10:26:37.654Z,23.64
2019-04-25T10:27:36.834Z,23.74
2019-04-25T10:28:36.832Z,23.74
2019-04-25T10:29:44.344Z,23.86
2019-04-25T10:30:36.824Z,23.90
2019-04-25T10:31:36.822Z,23.92
2019-04-25T10:32:36.820Z,23.97
2019-04-25T10:33:36.816Z,24.09
2019-04-25T10:34:36.812Z,24.18
2019-04-25T10:35:46.703Z,24.30
2019-04-25T10:36:39.828Z,24.29
2019-04-25T10:37:36.803Z,24.34
2019-04-25T10:38:36.973Z,24.36
2019-04-25T10:39:36.803Z,24.33
2019-04-25T10:40:36.795Z,24.30
2019-04-25T10:41:36.792Z,24.46
2019-04-25T10:42:36.790Z,24.59
2019-04-25T10:43:36.796Z,24.61
2019-04-25T10:44:36.787Z,24.67
2019-04-25T10:45:36.780Z,24.70
2019-04-25T10:46:36.783Z,24.80
2019-04-25T10:47:36.778Z,24.80
2019-04-25T10:48:36.776Z,24.87
2019-04-25T10:49:36.774Z,24.89
2019-04-25T10:50:36.769Z,24.86
2019-04-25T10:51:36.769Z,24.80
2019-04-25T10:52:36.765Z,24.74
2019-04-25T10:53:36.762Z,24.71
2019-04-25T10:54:36.760Z,24.75
2019-04-25T10:55:36.757Z,24.90
2019-04-25T10:56:36.757Z,25.05
2019-04-25T10:57:36.753Z,25.04
2019-04-25T10:58:36.750Z,25.14
2019-04-25T10:59:36.748Z,25.11
2019-04-25T11:00:36.746Z,25.23
2019-04-25T11:01:36.744Z,25.24
2019-04-25T11:02:36.740Z,25.20
2019-04-25T11:03:36.740Z,25.24
2019-04-25T11:04:36.737Z,25.31
2019-04-25T11:05:36.733Z,25.38
2019-04-25T11:06:36.734Z,25.35
2019-04-25T11:07:36.730Z,25.23
2019-04-25T11:08:36.727Z,25.17
2019-04-25T11:09:36.928Z,25.04
2019-04-25T11:10:36.723Z,25.14
2019-04-25T11:11:36.720Z,25.22
2019-04-25T11:12:36.719Z,25.22
2019-04-25T11:13:36.717Z,25.12
2019-04-25T11:14:36.714Z,25.05
2019-04-25T11:15:36.718Z,25.02
2019-04-25T11:16:36.712Z,24.94
2019-04-25T11:17:36.716Z,24.77
2019-04-25T11:18:36.706Z,24.66
2019-04-25T11:19:37.336Z,24.82
2019-04-25T11:20:36.703Z,24.93
2019-04-25T11:21:36.699Z,24.92
2019-04-25T11:22:36.698Z,24.92
2019-04-25T11:23:36.698Z,25.02
2019-04-25T11:24:36.694Z,25.12
2019-04-25T11:25:36.692Z,25.17
2019-04-25T11:26:36.689Z,25.04
2019-04-25T11:27:36.689Z,25.12
2019-04-25T11:28:36.686Z,25.19
2019-04-25T11:29:36.683Z,25.17
2019-04-25T11:30:36.680Z,25.05
2019-04-25T11:31:36.679Z,25.11
2019-04-25T11:32:36.678Z,25.19
2019-04-25T11:33:36.674Z,25.14
2019-04-25T11:34:36.673Z,25.23
2019-04-25T11:35:36.672Z,25.24
2019-04-25T11:36:36.668Z,25.34
2019-04-25T11:37:36.668Z,25.35
2019-04-25T11:38:36.665Z,25.26
2019-04-25T11:39:36.667Z,25.31
2019-04-25T11:40:36.662Z,25.24
2019-04-25T11:41:36.657Z,25.31
2019-04-25T11:42:36.659Z,25.23
2019-04-25T11:43:36.655Z,25.27
2019-04-25T11:44:36.655Z,25.24
2019-04-25T11:45:36.651Z,25.23
2019-04-25T11:46:39.237Z,25.22
2019-04-25T11:47:36.648Z,25.26
2019-04-25T11:48:36.644Z,25.09
2019-04-25T11:49:36.641Z,25.02
2019-04-25T11:50:37.089Z,25.01
2019-04-25T11:51:36.639Z,24.99
2019-04-25T11:52:36.637Z,25.24
2019-04-25T11:53:36.633Z,25.22
2019-04-25T11:54:36.633Z,25.24
2019-04-25T11:55:36.635Z,25.36
2019-04-25T11:56:36.627Z,25.45
2019-04-25T11:57:36.631Z,25.54
2019-04-25T11:58:36.621Z,25.57
2019-04-25T11:59:36.623Z,25.57
2019-04-25T12:00:36.620Z,25.66
2019-04-25T12:01:36.617Z,25.67
2019-04-25T12:02:36.617Z,25.60
2019-04-25T12:03:36.614Z,25.67
2019-04-25T12:04:36.611Z,25.67
2019-04-25T12:05:36.610Z,25.76
2019-04-25T12:06:36.607Z,25.86
2019-04-25T12:07:36.605Z,25.91
2019-04-25T12:08:36.608Z,26.09
2019-04-25T12:09:36.609Z,26.03
2019-04-25T12:10:36.604Z,25.74
2019-04-25T12:11:36.600Z,25.75
2019-04-25T12:12:37.290Z,25.76
2019-04-25T12:13:36.598Z,25.89
2019-04-25T12:14:36.596Z,25.76
2019-04-25T12:15:36.594Z,25.93
2019-04-25T12:16:36.593Z,26.00
2019-04-25T12:17:36.591Z,26.01
2019-04-25T12:18:36.591Z,25.96
2019-04-25T12:19:38.070Z,26.03
2019-04-25T12:20:36.587Z,26.19
2019-04-25T12:21:36.589Z,26.16
2019-04-25T12:22:36.582Z,26.31
2019-04-25T12:23:36.582Z,26.27
2019-04-25T12:24:36.581Z,26.16
2019-04-25T12:25:36.582Z,26.36
2019-04-25T12:26:36.576Z,26.51
2019-04-25T12:27:36.576Z,26.38
2019-04-25T12:28:36.579Z,26.54
2019-04-25T12:29:38.749Z,26.51
2019-04-25T12:30:40.193Z,26.54
2019-04-25T12:31:36.569Z,26.50
2019-04-25T12:32:36.569Z,26.56
2019-04-25T12:33:36.565Z,26.59
2019-04-25T12:34:36.566Z,26.49
2019-04-25T12:35:36.567Z,26.57
2019-04-25T12:36:36.564Z,26.57
2019-04-25T12:37:36.562Z,26.65
2019-04-25T12:38:36.559Z,26.51
2019-04-25T12:39:36.560Z,26.57
2019-04-25T12:40:36.559Z,26.81
2019-04-25T12:41:36.556Z,26.88
2019-04-25T12:42:36.557Z,26.73
2019-04-25T12:43:36.559Z,26.66
2019-04-25T12:44:36.556Z,26.61
2019-04-25T12:45:36.555Z,26.50
2019-04-25T12:46:36.554Z,26.31
2019-04-25T12:47:36.554Z,26.29
2019-04-25T12:48:36.553Z,26.35
2019-04-25T12:49:36.553Z,26.27
2019-04-25T12:50:36.549Z,26.13
2019-04-25T12:51:36.546Z,26.06
2019-04-25T12:52:36.549Z,26.08
2019-04-25T12:53:36.546Z,26.09
2019-04-25T12:54:36.545Z,25.97
2019-04-25T12:55:36.543Z,25.78
2019-04-25T12:56:36.543Z,25.71
2019-04-25T12:57:36.547Z,25.81
2019-04-25T12:58:36.542Z,25.75
2019-04-25T12:59:36.539Z,25.78